createdAt,value
2017-11-11T00:00:33.671Z,1.83
2017-11-11T00:03:01.925Z,1.60
2017-11-11T00:05:30.197Z,0.97
2017-11-11T00:07:58.470Z,1.63
2017-11-11T00:10:26.776Z,1.30
2017-11-11T00:12:55.031Z,2.43
2017-11-11T00:15:23.333Z,1.40
2017-11-11T00:17:51.573Z,2.13
2017-11-11T00:20:19.877Z,1.40
2017-11-11T00:22:48.162Z,1.50
2017-11-11T00:25:16.445Z,1.77
2017-11-11T00:27:44.687Z,1.80
2017-11-11T00:30:12.961Z,1.07
2017-11-11T00:32:41.214Z,1.30
2017-11-11T00:35:10.293Z,1.57
2017-11-11T00:37:38.542Z,1.37
2017-11-11T00:40:06.815Z,1.10
2017-11-11T00:42:35.074Z,0.93
2017-11-11T00:45:03.351Z,1.30
2017-11-11T00:47:31.601Z,1.00
2017-11-11T00:49:59.914Z,1.10
2017-11-11T00:52:28.158Z,1.20
2017-11-11T00:54:56.483Z,0.90
2017-11-11T00:57:24.728Z,1.30
2017-11-11T00:59:53.041Z,1.30
2017-11-11T01:02:21.287Z,0.80
2017-11-11T01:04:49.602Z,1.00
2017-11-11T01:07:17.845Z,0.90
2017-11-11T01:09:46.093Z,1.17
2017-11-11T01:12:14.369Z,1.40
2017-11-11T01:14:42.643Z,1.20
2017-11-11T01:17:11.692Z,1.30
2017-11-11T01:19:39.937Z,0.90
2017-11-11T01:22:08.213Z,1.03
2017-11-11T01:24:36.470Z,1.03
2017-11-11T01:27:05.531Z,1.03
2017-11-11T01:29:33.792Z,1.30
2017-11-11T01:32:02.061Z,1.50
2017-11-11T01:34:30.342Z,0.83
2017-11-11T01:36:58.674Z,1.03
2017-11-11T01:39:27.686Z,0.60
2017-11-11T01:41:55.999Z,1.23
2017-11-11T01:44:24.241Z,1.23
2017-11-11T01:46:52.509Z,1.20
2017-11-11T01:49:20.767Z,0.90
2017-11-11T01:51:49.810Z,0.90
2017-11-11T01:54:18.062Z,0.90
2017-11-11T01:56:46.322Z,1.20
2017-11-11T01:59:15.358Z,1.33
2017-11-11T02:01:43.632Z,1.30
2017-11-11T02:04:11.885Z,0.93
2017-11-11T02:06:40.153Z,0.87
2017-11-11T02:09:08.404Z,1.37
2017-11-11T02:11:36.687Z,1.40
2017-11-11T02:14:05.706Z,0.77
2017-11-11T02:16:34.061Z,0.80
2017-11-11T02:19:03.081Z,1.10
2017-11-11T02:21:31.348Z,0.80
2017-11-11T02:23:59.678Z,1.20
2017-11-11T02:26:28.064Z,0.90
2017-11-11T02:28:56.429Z,1.50
2017-11-11T02:31:24.701Z,1.20
2017-11-11T02:33:52.979Z,2.10
2017-11-11T02:36:21.249Z,1.10
2017-11-11T02:38:49.493Z,0.77
2017-11-11T02:41:17.809Z,1.33
2017-11-11T02:43:46.051Z,1.30
2017-11-11T02:46:14.317Z,1.27
2017-11-11T02:48:43.325Z,0.60
2017-11-11T02:51:11.595Z,0.90
2017-11-11T02:53:40.630Z,1.20
2017-11-11T02:56:08.903Z,1.03
2017-11-11T02:58:37.149Z,1.30
2017-11-11T03:01:05.486Z,1.00
2017-11-11T03:03:33.729Z,1.00
2017-11-11T03:06:01.995Z,1.40
2017-11-11T03:08:30.246Z,0.80
2017-11-11T03:10:59.411Z,0.93
2017-11-11T03:13:27.669Z,2.00
2017-11-11T03:15:55.945Z,1.40
2017-11-11T03:18:24.212Z,1.03
2017-11-11T03:20:52.513Z,1.97
2017-11-11T03:23:20.776Z,0.60
2017-11-11T03:25:49.030Z,1.37
2017-11-11T03:28:17.334Z,0.80
2017-11-11T03:30:45.600Z,0.80
2017-11-11T03:33:13.859Z,1.10
2017-11-11T03:35:42.110Z,1.07
2017-11-11T03:38:11.267Z,0.97
2017-11-11T03:40:39.512Z,1.23
2017-11-11T03:43:07.794Z,0.90
2017-11-11T03:45:36.033Z,1.23
2017-11-11T03:48:05.071Z,0.70
2017-11-11T03:50:33.326Z,0.93
2017-11-11T03:53:01.597Z,0.93
2017-11-11T03:55:29.854Z,0.90
2017-11-11T03:57:58.893Z,1.40
2017-11-11T04:00:27.153Z,1.23
2017-11-11T04:02:55.417Z,1.10
2017-11-11T04:05:23.668Z,1.10
2017-11-11T04:07:53.452Z,1.17
2017-11-11T04:10:21.717Z,1.70
2017-11-11T04:12:49.991Z,1.10
2017-11-11T04:15:18.278Z,1.03
2017-11-11T04:17:46.564Z,0.83
2017-11-11T04:20:14.824Z,1.03
2017-11-11T04:22:43.110Z,1.10
2017-11-11T04:25:11.400Z,1.40
2017-11-11T04:27:39.671Z,1.20
2017-11-11T04:30:07.929Z,1.30
2017-11-11T04:32:36.200Z,1.23
2017-11-11T04:35:04.458Z,2.27
2017-11-11T04:37:32.731Z,1.43
2017-11-11T04:40:01.002Z,1.23
2017-11-11T04:42:30.058Z,1.27
2017-11-11T04:44:58.319Z,1.60
2017-11-11T04:47:26.660Z,2.17
2017-11-11T04:49:54.912Z,1.30
2017-11-11T04:52:23.262Z,1.87
2017-11-11T04:54:51.525Z,1.40
2017-11-11T04:57:19.794Z,2.03
2017-11-11T04:59:48.047Z,1.50
2017-11-11T05:02:16.365Z,0.97
2017-11-11T05:04:44.616Z,2.37
2017-11-11T05:07:12.909Z,1.63
2017-11-11T05:09:41.153Z,1.57
2017-11-11T05:12:09.435Z,1.90
2017-11-11T05:14:37.695Z,1.50
2017-11-11T05:17:06.740Z,1.87
2017-11-11T05:19:35.005Z,1.50
2017-11-11T05:22:03.298Z,1.67
2017-11-11T05:24:31.575Z,1.80
2017-11-11T05:26:59.823Z,1.67
2017-11-11T05:29:28.096Z,1.80
2017-11-11T05:31:56.345Z,1.47
2017-11-11T05:34:25.391Z,1.63
2017-11-11T05:36:53.645Z,1.00
2017-11-11T05:39:21.922Z,1.47
2017-11-11T05:41:50.173Z,1.70
2017-11-11T05:44:19.204Z,1.50
2017-11-11T05:46:47.506Z,1.73
2017-11-11T05:49:15.881Z,2.00
2017-11-11T05:51:44.126Z,1.40
2017-11-11T05:54:12.390Z,1.97
2017-11-11T05:56:40.665Z,1.20
2017-11-11T05:59:09.821Z,1.47
2017-11-11T06:01:38.088Z,2.00
2017-11-11T06:04:06.346Z,1.80
2017-11-11T06:06:34.614Z,1.90
2017-11-11T06:09:02.917Z,1.80
2017-11-11T06:11:31.301Z,1.90
2017-11-11T06:13:59.585Z,2.07
2017-11-11T06:16:27.862Z,1.40
2017-11-11T06:18:56.150Z,1.93
2017-11-11T06:21:24.432Z,1.20
2017-11-11T06:23:54.229Z,1.70
2017-11-11T06:26:22.604Z,2.03
2017-11-11T06:28:50.908Z,1.50
2017-11-11T06:31:19.177Z,2.20
2017-11-11T06:33:47.552Z,2.07
2017-11-11T06:36:15.817Z,1.83
2017-11-11T06:38:44.117Z,2.03
2017-11-11T06:41:12.470Z,1.90
2017-11-11T06:43:40.757Z,1.60
2017-11-11T06:46:09.028Z,1.33
2017-11-11T06:48:37.317Z,2.10
2017-11-11T06:51:07.092Z,1.73
2017-11-11T06:53:35.388Z,1.80
2017-11-11T06:56:03.678Z,1.40
2017-11-11T06:58:31.972Z,1.73
2017-11-11T07:01:00.259Z,1.60
2017-11-11T07:03:29.317Z,1.83
2017-11-11T07:05:57.615Z,1.80
2017-11-11T07:08:26.669Z,1.60
2017-11-11T07:10:54.969Z,1.30
2017-11-11T07:13:23.270Z,1.40
2017-11-11T07:15:51.533Z,1.33
2017-11-11T07:18:19.853Z,2.03
2017-11-11T07:20:48.891Z,1.70
2017-11-11T07:23:17.375Z,1.77
2017-11-11T07:25:45.704Z,1.73
2017-11-11T07:28:15.688Z,1.80
2017-11-11T07:30:43.964Z,1.30
2017-11-11T07:33:12.255Z,1.63
2017-11-11T07:35:41.289Z,1.60
2017-11-11T07:38:09.576Z,2.17
2017-11-11T07:40:37.868Z,1.60
2017-11-11T07:43:06.162Z,1.50
2017-11-11T07:45:34.435Z,2.40
2017-11-11T07:48:02.752Z,1.70
2017-11-11T07:50:31.786Z,1.53
2017-11-11T07:53:00.077Z,1.63
2017-11-11T07:55:28.355Z,1.87
2017-11-11T07:57:56.652Z,1.40
2017-11-11T08:00:24.908Z,1.63
2017-11-11T08:02:53.204Z,2.93
2017-11-11T08:05:22.300Z,1.73
2017-11-11T08:07:52.105Z,2.20
2017-11-11T08:10:20.379Z,1.97
2017-11-11T08:12:48.707Z,1.93
2017-11-11T08:15:17.045Z,2.33
2017-11-11T08:17:46.113Z,1.73
2017-11-11T08:20:14.412Z,2.07
2017-11-11T08:22:42.676Z,1.97
2017-11-11T08:25:10.980Z,2.60
2017-11-11T08:27:40.757Z,1.30
2017-11-11T08:30:09.051Z,2.83
2017-11-11T08:32:37.321Z,2.40
2017-11-11T08:35:05.617Z,3.00
2017-11-11T08:37:33.905Z,2.43
2017-11-11T08:40:02.202Z,2.33
2017-11-11T08:42:31.232Z,2.17
2017-11-11T08:44:59.525Z,2.10
2017-11-11T08:47:27.788Z,2.60
2017-11-11T08:49:56.081Z,2.40
2017-11-11T08:52:24.359Z,2.63
2017-11-11T08:54:52.665Z,2.03
2017-11-11T08:57:21.058Z,2.50
2017-11-11T08:59:49.389Z,2.40
2017-11-11T09:02:17.697Z,2.63
2017-11-11T09:04:46.158Z,2.30
2017-11-11T09:07:14.465Z,1.90
2017-11-11T09:09:43.525Z,2.20
2017-11-11T09:12:11.847Z,2.77
2017-11-11T09:14:40.961Z,2.93
2017-11-11T09:17:09.233Z,2.60
2017-11-11T09:19:37.532Z,3.17
2017-11-11T09:22:05.810Z,2.70
2017-11-11T09:24:34.134Z,2.30
2017-11-11T09:27:04.097Z,3.00
2017-11-11T09:29:32.386Z,2.73
2017-11-11T09:32:00.678Z,3.30
2017-11-11T09:34:28.968Z,2.20
2017-11-11T09:36:57.362Z,2.50
2017-11-11T09:39:27.151Z,3.17
2017-11-11T09:41:55.421Z,2.40
2017-11-11T09:44:23.709Z,2.70
2017-11-11T09:46:51.979Z,2.50
2017-11-11T09:49:20.245Z,3.97
2017-11-11T09:51:48.533Z,2.33
2017-11-11T09:54:16.816Z,2.70
2017-11-11T09:56:45.107Z,2.47
2017-11-11T09:59:13.380Z,2.20
2017-11-11T10:01:42.446Z,2.67
2017-11-11T10:04:10.774Z,1.80
2017-11-11T10:06:39.158Z,2.10
2017-11-11T10:09:08.217Z,2.70
2017-11-11T10:11:36.800Z,2.47
2017-11-11T10:14:05.877Z,2.07
2017-11-11T10:16:34.171Z,3.10
2017-11-11T10:19:03.333Z,2.00
2017-11-11T10:21:31.650Z,2.20
2017-11-11T10:24:00.030Z,2.17
2017-11-11T10:26:28.321Z,2.27
2017-11-11T10:28:56.701Z,1.83
2017-11-11T10:31:25.767Z,2.20
2017-11-11T10:33:54.146Z,2.30
2017-11-11T10:36:22.449Z,2.17
2017-11-11T10:38:52.229Z,2.43
2017-11-11T10:41:20.532Z,2.20
2017-11-11T10:43:48.822Z,2.07
2017-11-11T10:46:17.109Z,2.03
2017-11-11T10:48:45.416Z,2.20
2017-11-11T10:51:13.737Z,1.97
2017-11-11T10:53:42.013Z,2.10
2017-11-11T10:56:10.317Z,2.53
2017-11-11T10:58:40.119Z,1.90
2017-11-11T11:01:09.929Z,2.03
2017-11-11T11:03:38.225Z,2.20
2017-11-11T11:06:06.601Z,2.20
2017-11-11T11:08:35.877Z,2.43
2017-11-11T11:11:08.765Z,2.47
2017-11-11T11:13:43.289Z,2.80
2017-11-11T11:16:14.841Z,3.47
2017-11-11T11:18:43.146Z,2.80
2017-11-11T11:21:11.497Z,2.87
2017-11-11T11:23:41.294Z,3.63
2017-11-11T11:26:09.591Z,2.60
2017-11-11T11:28:37.962Z,3.20
2017-11-11T11:31:06.269Z,3.17
2017-11-11T11:33:34.641Z,3.27
2017-11-11T11:36:04.445Z,2.50
2017-11-11T11:38:32.731Z,3.33
2017-11-11T11:41:01.035Z,3.27
2017-11-11T11:43:30.080Z,4.10
2017-11-11T11:45:58.376Z,3.67
2017-11-11T11:48:27.410Z,4.00
2017-11-11T11:50:55.695Z,4.00
2017-11-11T11:53:23.990Z,3.47
2017-11-11T11:55:52.289Z,3.33
2017-11-11T11:58:20.587Z,4.67
2017-11-11T12:00:50.401Z,3.80
2017-11-11T12:03:20.197Z,4.57
2017-11-11T12:05:48.530Z,4.47
2017-11-11T12:08:16.793Z,5.37
2017-11-11T12:10:45.850Z,3.80
2017-11-11T12:13:14.121Z,4.80
2017-11-11T12:15:42.518Z,4.67
2017-11-11T12:18:11.854Z,4.50
2017-11-11T12:20:40.145Z,3.40
2017-11-11T12:23:08.553Z,3.67
2017-11-11T12:25:36.837Z,3.80
2017-11-11T12:28:05.134Z,3.70
2017-11-11T12:30:33.421Z,3.90
2017-11-11T12:33:02.502Z,3.10
2017-11-11T12:35:30.813Z,2.30
2017-11-11T12:37:59.112Z,3.47
2017-11-11T12:40:27.395Z,3.67
2017-11-11T12:42:55.696Z,3.07
2017-11-11T12:45:23.971Z,2.90
2017-11-11T12:47:52.264Z,3.40
2017-11-11T12:50:21.311Z,4.10
2017-11-11T12:52:49.733Z,2.80
2017-11-11T12:55:19.471Z,3.30
2017-11-11T12:57:48.538Z,3.60
2017-11-11T13:00:16.813Z,2.80
2017-11-11T13:02:45.110Z,2.90
2017-11-11T13:05:13.448Z,4.17
2017-11-11T13:07:41.766Z,2.90
2017-11-11T13:10:10.046Z,3.70
2017-11-11T13:12:38.350Z,3.60
2017-11-11T13:15:06.626Z,3.50
2017-11-11T13:17:34.970Z,3.50
2017-11-11T13:20:03.258Z,3.43
2017-11-11T13:22:31.550Z,3.37
2017-11-11T13:25:00.589Z,3.60
2017-11-11T13:27:28.979Z,3.47
2017-11-11T13:29:57.254Z,3.27
2017-11-11T13:32:25.553Z,4.10
2017-11-11T13:34:55.447Z,3.07
2017-11-11T13:37:23.746Z,3.33
2017-11-11T13:39:52.123Z,2.80
2017-11-11T13:42:21.936Z,3.43
2017-11-11T13:44:50.982Z,3.17
2017-11-11T13:47:19.273Z,3.50
2017-11-11T13:49:47.545Z,3.53
2017-11-11T13:52:15.858Z,3.40
2017-11-11T13:54:45.027Z,3.43
2017-11-11T13:57:13.333Z,2.80
2017-11-11T13:59:46.109Z,2.70
2017-11-11T14:02:15.418Z,3.10
2017-11-11T14:04:44.462Z,3.30
2017-11-11T14:07:13.645Z,2.67
2017-11-11T14:09:42.682Z,2.97
2017-11-11T14:12:10.972Z,2.80
2017-11-11T14:14:39.349Z,2.70
2017-11-11T14:17:07.662Z,4.27
2017-11-11T14:19:36.017Z,3.80
2017-11-11T14:22:04.397Z,2.77
2017-11-11T14:24:32.665Z,2.37
2017-11-11T14:27:00.950Z,2.90
2017-11-11T14:29:29.270Z,2.50
2017-11-11T14:31:58.340Z,1.97
2017-11-11T14:34:26.613Z,2.43
2017-11-11T14:36:54.925Z,2.43
2017-11-11T14:39:23.194Z,2.40
2017-11-11T14:41:52.253Z,2.50
2017-11-11T14:44:20.531Z,2.63
2017-11-11T14:46:49.581Z,2.73
2017-11-11T14:49:17.863Z,2.23
2017-11-11T14:51:47.096Z,3.00
2017-11-11T14:54:15.382Z,2.60
2017-11-11T14:56:43.645Z,2.60
2017-11-11T14:59:11.945Z,2.60
2017-11-11T15:01:40.977Z,3.10
2017-11-11T15:04:09.270Z,3.33
2017-11-11T15:06:37.543Z,2.90
2017-11-11T15:09:05.832Z,3.37
2017-11-11T15:11:34.138Z,2.53
2017-11-11T15:14:03.197Z,3.67
2017-11-11T15:16:31.761Z,3.13
2017-11-11T15:19:00.834Z,3.40
2017-11-11T15:21:29.194Z,3.80
2017-11-11T15:23:57.498Z,3.10
2017-11-11T15:26:26.546Z,3.70
2017-11-11T15:28:54.842Z,3.70
2017-11-11T15:31:23.116Z,3.33
2017-11-11T15:33:51.408Z,4.17
2017-11-11T15:36:20.191Z,3.10
2017-11-11T15:38:49.985Z,3.50
2017-11-11T15:41:18.278Z,3.43
2017-11-11T15:43:46.633Z,4.27
2017-11-11T15:46:14.903Z,4.00
2017-11-11T15:48:43.237Z,3.40
2017-11-11T15:51:12.275Z,4.30
2017-11-11T15:53:40.585Z,4.53
2017-11-11T15:56:09.103Z,3.37
2017-11-11T15:58:37.653Z,3.70
2017-11-11T16:01:06.378Z,3.80
2017-11-11T16:03:35.048Z,4.00
2017-11-11T16:06:03.336Z,3.90
2017-11-11T16:08:31.633Z,3.10
2017-11-11T16:11:00.109Z,3.73
2017-11-11T16:13:28.591Z,3.80
2017-11-11T16:15:56.957Z,3.53
2017-11-11T16:18:26.010Z,3.40
2017-11-11T16:20:54.292Z,4.13
2017-11-11T16:23:22.590Z,3.83
2017-11-11T16:25:50.871Z,5.30
2017-11-11T16:28:19.929Z,3.13
2017-11-11T16:30:48.193Z,3.47
2017-11-11T16:33:16.481Z,3.77
2017-11-11T16:35:44.780Z,4.97
2017-11-11T16:38:14.591Z,4.07
2017-11-11T16:40:42.886Z,4.03
2017-11-11T16:43:11.956Z,4.80
2017-11-11T16:45:40.264Z,4.13
2017-11-11T16:48:09.345Z,3.80
2017-11-11T16:50:38.389Z,3.90
2017-11-11T16:53:06.699Z,4.70
2017-11-11T16:55:36.502Z,4.40
2017-11-11T16:58:04.809Z,4.10
2017-11-11T17:00:33.122Z,4.17
2017-11-11T17:03:01.404Z,4.10
2017-11-11T17:05:29.706Z,3.63
2017-11-11T17:07:57.977Z,4.40
2017-11-11T17:10:26.295Z,3.93
2017-11-11T17:12:54.573Z,4.50
2017-11-11T17:15:22.882Z,4.40
2017-11-11T17:17:51.173Z,4.90
2017-11-11T17:20:19.593Z,4.20
2017-11-11T17:22:47.869Z,4.83
2017-11-11T17:25:16.922Z,4.30
2017-11-11T17:27:45.187Z,5.07
2017-11-11T17:30:13.457Z,4.90
2017-11-11T17:32:41.701Z,5.60
2017-11-11T17:35:09.977Z,6.50
2017-11-11T17:37:39.747Z,5.80
2017-11-11T17:40:08.010Z,4.37
2017-11-11T17:42:36.310Z,3.97
2017-11-11T17:45:04.611Z,4.73
2017-11-11T17:47:32.852Z,3.70
2017-11-11T17:50:01.130Z,4.07
2017-11-11T17:52:29.380Z,3.97
2017-11-11T17:54:57.657Z,3.97
2017-11-11T17:57:26.668Z,4.20
2017-11-11T17:59:54.951Z,4.70
2017-11-11T18:02:23.224Z,4.23
2017-11-11T18:04:51.541Z,3.50
2017-11-11T18:07:19.787Z,4.40
2017-11-11T18:09:48.065Z,3.67
2017-11-11T18:12:16.326Z,3.20
2017-11-11T18:14:44.607Z,4.07
2017-11-11T18:17:12.939Z,3.10
2017-11-11T18:19:42.006Z,3.40
2017-11-11T18:22:10.253Z,3.60
2017-11-11T18:24:38.564Z,3.40
2017-11-11T18:27:06.838Z,3.80
2017-11-11T18:29:35.085Z,4.40
2017-11-11T18:32:03.386Z,3.50
2017-11-11T18:34:31.638Z,2.77
2017-11-11T18:36:59.954Z,2.60
2017-11-11T18:39:28.215Z,3.03
2017-11-11T18:41:56.485Z,3.30
2017-11-11T18:44:25.588Z,3.20
2017-11-11T18:46:53.872Z,3.10
2017-11-11T18:49:22.880Z,3.80
2017-11-11T18:51:51.187Z,3.20
2017-11-11T18:54:19.445Z,3.60
2017-11-11T18:56:47.845Z,3.80
2017-11-11T18:59:16.105Z,3.47
2017-11-11T19:01:44.377Z,3.23
2017-11-11T19:04:12.629Z,3.33
2017-11-11T19:06:40.903Z,3.70
2017-11-11T19:09:09.230Z,3.10
2017-11-11T19:11:37.485Z,4.03
2017-11-11T19:14:05.733Z,3.30
2017-11-11T19:16:34.055Z,2.63
2017-11-11T19:19:02.338Z,2.93
2017-11-11T19:21:30.705Z,2.60
2017-11-11T19:23:58.970Z,3.33
2017-11-11T19:26:27.229Z,2.47
2017-11-11T19:28:55.502Z,2.33
2017-11-11T19:31:23.775Z,2.57
2017-11-11T19:33:52.934Z,2.60
2017-11-11T19:36:21.193Z,2.70
2017-11-11T19:38:49.578Z,1.77
2017-11-11T19:41:17.886Z,2.00
2017-11-11T19:43:47.624Z,2.33
2017-11-11T19:46:15.876Z,1.87
2017-11-11T19:48:44.142Z,1.70
2017-11-11T19:51:13.153Z,1.33
2017-11-11T19:53:42.194Z,1.50
2017-11-11T19:56:10.438Z,1.23
2017-11-11T19:58:39.470Z,1.50
2017-11-11T20:01:07.726Z,1.63
2017-11-11T20:03:35.997Z,1.40
2017-11-11T20:06:04.246Z,1.80
2017-11-11T20:08:33.291Z,1.60
2017-11-11T20:11:01.567Z,1.43
2017-11-11T20:13:29.841Z,1.73
2017-11-11T20:15:58.097Z,1.50
2017-11-11T20:18:26.412Z,1.23
2017-11-11T20:20:54.705Z,1.73
2017-11-11T20:23:23.015Z,1.10
2017-11-11T20:25:52.062Z,1.20
2017-11-11T20:28:20.382Z,0.93
2017-11-11T20:30:49.474Z,1.20
2017-11-11T20:33:17.877Z,1.00
2017-11-11T20:35:47.247Z,1.03
2017-11-11T20:38:15.633Z,0.90
2017-11-11T20:40:43.891Z,1.77
2017-11-11T20:43:12.171Z,1.17
2017-11-11T20:45:40.447Z,0.80
2017-11-11T20:48:10.227Z,1.03
2017-11-11T20:50:38.485Z,0.90
2017-11-11T20:53:06.787Z,0.80
2017-11-11T20:55:35.038Z,0.63
2017-11-11T20:58:03.333Z,1.00
2017-11-11T21:00:32.354Z,0.90
2017-11-11T21:05:36.050Z,1.17
2017-11-11T21:08:04.311Z,1.23
2017-11-11T21:10:32.605Z,1.30
2017-11-11T21:13:00.945Z,1.27
2017-11-11T21:15:29.221Z,1.20
2017-11-11T21:17:57.481Z,1.47
2017-11-11T21:20:25.801Z,1.00
2017-11-11T21:22:54.046Z,1.27
2017-11-11T21:25:22.322Z,1.80
2017-11-11T21:27:50.631Z,1.60
2017-11-11T21:30:18.893Z,2.13
2017-11-11T21:32:47.151Z,1.83
2017-11-11T21:35:15.422Z,2.03
2017-11-11T21:37:43.682Z,2.40
2017-11-11T21:40:12.716Z,2.07
2017-11-11T21:42:40.964Z,2.73
2017-11-11T21:45:09.239Z,1.90
2017-11-11T21:47:37.567Z,2.30
2017-11-11T21:50:05.853Z,2.53
2017-11-11T21:52:34.110Z,2.63
2017-11-11T21:55:02.376Z,3.07
2017-11-11T21:57:30.639Z,2.80
2017-11-11T21:59:58.910Z,2.47
2017-11-11T22:02:27.170Z,2.60
2017-11-11T22:04:56.209Z,3.20
2017-11-11T22:07:24.458Z,2.90
2017-11-11T22:09:52.725Z,3.00
2017-11-11T22:12:20.984Z,3.30
2017-11-11T22:14:50.753Z,3.00
2017-11-11T22:17:19.022Z,3.50
2017-11-11T22:19:47.310Z,3.20
2017-11-11T22:22:15.575Z,3.37
2017-11-11T22:24:44.383Z,3.10
2017-11-11T22:27:12.635Z,3.37
2017-11-11T22:29:40.921Z,4.00
2017-11-11T22:32:09.182Z,3.13
2017-11-11T22:34:37.470Z,3.50
2017-11-11T22:37:05.744Z,3.53
2017-11-11T22:39:34.030Z,4.70
2017-11-11T22:42:02.304Z,3.90
2017-11-11T22:44:30.588Z,3.70
2017-11-11T22:46:58.865Z,3.63
2017-11-11T22:49:27.127Z,3.83
2017-11-11T22:51:55.395Z,3.00
2017-11-11T22:54:23.657Z,3.70
2017-11-11T22:56:51.918Z,3.63
2017-11-11T22:59:20.991Z,3.73
2017-11-11T23:01:49.358Z,4.03
2017-11-11T23:04:17.619Z,3.20
2017-11-11T23:06:45.897Z,3.10
2017-11-11T23:09:14.147Z,4.40
2017-11-11T23:11:42.478Z,3.47
2017-11-11T23:14:10.713Z,5.00
2017-11-11T23:16:39.008Z,3.30
2017-11-11T23:19:07.244Z,4.93
2017-11-11T23:21:35.525Z,4.40
2017-11-11T23:24:03.787Z,4.77
2017-11-11T23:26:32.822Z,3.03
2017-11-11T23:29:01.074Z,3.60
2017-11-11T23:31:29.355Z,3.67
2017-11-11T23:33:57.616Z,5.50
2017-11-11T23:36:26.680Z,3.60
2017-11-11T23:38:54.923Z,4.40
2017-11-11T23:41:23.198Z,3.57
2017-11-11T23:43:51.457Z,3.30
2017-11-11T23:46:19.790Z,4.80
2017-11-11T23:48:48.047Z,5.13
2017-11-11T23:51:16.333Z,4.33
2017-11-11T23:53:44.599Z,4.23
2017-11-11T23:56:12.863Z,4.33
2017-11-11T23:58:41.114Z,5.17
